createdAt,value
2022-07-27T00:01:30.930Z,63.52
2022-07-27T00:04:00.265Z,63.29
2022-07-27T00:06:29.205Z,63.14
2022-07-27T00:08:58.182Z,63.60
2022-07-27T00:11:26.996Z,63.77
2022-07-27T00:13:55.909Z,63.88
2022-07-27T00:16:24.955Z,64.04
2022-07-27T00:18:54.113Z,64.23
2022-07-27T00:21:23.004Z,64.59
2022-07-27T00:23:51.842Z,64.58
2022-07-27T00:26:21.137Z,64.79
2022-07-27T00:28:51.325Z,64.88
2022-07-27T00:31:20.325Z,64.91
2022-07-27T00:33:49.385Z,65.18
2022-07-27T00:36:18.317Z,65.33
2022-07-27T00:38:47.309Z,65.51
2022-07-27T00:41:16.331Z,65.56
2022-07-27T00:44:01.019Z,65.60
2022-07-27T00:46:30.191Z,65.82
2022-07-27T00:48:59.556Z,65.93
2022-07-27T00:51:28.789Z,65.94
2022-07-27T00:53:58.901Z,65.99
2022-07-27T00:56:27.868Z,66.12
2022-07-27T00:58:58.503Z,65.82
2022-07-27T01:01:27.483Z,65.84
2022-07-27T01:03:57.371Z,65.97
2022-07-27T01:06:27.258Z,66.10
2022-07-27T01:09:16.780Z,66.21
2022-07-27T01:11:48.615Z,66.74
2022-07-27T01:14:18.456Z,66.85
2022-07-27T01:16:47.464Z,66.91
2022-07-27T01:19:16.657Z,66.88
2022-07-27T01:21:45.747Z,66.97
2022-07-27T01:24:14.817Z,67.20
2022-07-27T01:26:44.890Z,67.48
2022-07-27T01:29:14.369Z,67.64
2022-07-27T01:31:48.680Z,67.72
2022-07-27T01:34:17.642Z,67.81
2022-07-27T01:36:46.821Z,67.96
2022-07-27T01:39:18.163Z,68.00
2022-07-27T01:41:47.918Z,68.24
2022-07-27T01:44:17.187Z,68.42
2022-07-27T01:46:46.322Z,68.41
2022-07-27T01:49:16.139Z,68.39
2022-07-27T01:51:45.563Z,68.39
2022-07-27T01:54:14.445Z,68.51
2022-07-27T01:56:43.419Z,68.41
2022-07-27T01:59:16.638Z,68.41
2022-07-27T02:01:46.289Z,68.86
2022-07-27T02:04:15.346Z,68.91
2022-07-27T02:06:44.423Z,69.19
2022-07-27T02:09:13.827Z,69.16
2022-07-27T02:12:01.700Z,69.37
2022-07-27T02:14:30.815Z,69.58
2022-07-27T02:17:00.164Z,69.63
2022-07-27T02:19:32.087Z,69.57
2022-07-27T02:22:01.131Z,69.72
2022-07-27T02:24:30.114Z,69.68
2022-07-27T02:26:59.116Z,69.91
2022-07-27T02:29:28.237Z,69.87
2022-07-27T02:31:57.779Z,69.71
2022-07-27T02:34:26.760Z,69.92
2022-07-27T02:36:55.718Z,70.14
2022-07-27T02:39:24.686Z,70.36
2022-07-27T02:41:53.870Z,70.36
2022-07-27T02:44:22.922Z,70.36
2022-07-27T02:46:52.183Z,70.34
2022-07-27T02:49:21.205Z,70.37
2022-07-27T02:51:54.325Z,70.51
2022-07-27T02:54:25.587Z,70.59
2022-07-27T02:56:56.282Z,70.58
2022-07-27T02:59:25.672Z,70.95
2022-07-27T03:01:54.797Z,71.00
2022-07-27T03:04:26.055Z,70.90
2022-07-27T03:06:56.434Z,70.87
2022-07-27T03:09:32.800Z,70.69
2022-07-27T03:12:03.931Z,70.79
2022-07-27T03:14:32.843Z,70.96
2022-07-27T03:17:04.369Z,71.03
2022-07-27T03:19:33.309Z,71.14
2022-07-27T03:22:02.614Z,71.20
2022-07-27T03:24:34.511Z,71.23
2022-07-27T03:27:03.592Z,71.13
2022-07-27T03:29:32.580Z,71.17
2022-07-27T03:32:01.817Z,71.45
2022-07-27T03:34:31.049Z,71.60
2022-07-27T03:37:01.229Z,72.02
2022-07-27T03:39:30.291Z,72.06
2022-07-27T03:42:00.411Z,72.27
2022-07-27T03:44:33.817Z,72.12
2022-07-27T03:47:03.056Z,72.27
2022-07-27T03:49:32.412Z,72.45
2022-07-27T03:52:01.816Z,72.40
2022-07-27T03:54:33.941Z,72.31
2022-07-27T03:57:03.410Z,72.20
2022-07-27T03:59:34.950Z,72.20
2022-07-27T04:02:11.639Z,72.52
2022-07-27T04:04:40.800Z,72.56
2022-07-27T04:07:10.581Z,72.37
2022-07-27T04:09:41.897Z,72.18
2022-07-27T04:12:13.768Z,72.04
2022-07-27T04:14:45.644Z,72.09
2022-07-27T04:17:55.422Z,71.91
2022-07-27T04:20:08.999Z,71.87
2022-07-27T04:22:38.189Z,71.82
2022-07-27T04:25:07.720Z,71.70
2022-07-27T04:27:37.090Z,71.60
2022-07-27T04:30:13.418Z,71.76
2022-07-27T04:32:42.476Z,71.57
2022-07-27T04:35:12.308Z,71.25
2022-07-27T04:37:41.538Z,70.86
2022-07-27T04:40:35.761Z,70.69
2022-07-27T04:43:07.664Z,70.58
2022-07-27T04:45:45.971Z,70.31
2022-07-27T04:48:15.328Z,70.27
2022-07-27T04:50:47.397Z,70.29
2022-07-27T04:53:20.459Z,70.43
2022-07-27T04:55:51.849Z,70.58
2022-07-27T04:58:23.295Z,71.00
2022-07-27T05:00:52.609Z,70.67
2022-07-27T05:03:21.699Z,70.73
2022-07-27T05:05:50.877Z,70.61
2022-07-27T05:08:21.329Z,70.57
2022-07-27T05:10:50.370Z,70.31
2022-07-27T05:13:19.444Z,69.08
2022-07-27T05:15:53.989Z,68.77
2022-07-27T05:18:25.854Z,67.09
2022-07-27T05:20:55.121Z,66.57
2022-07-27T05:23:24.003Z,66.23
2022-07-27T05:25:53.673Z,65.78
2022-07-27T05:28:23.987Z,64.78
2022-07-27T05:30:52.877Z,63.66
2022-07-27T05:33:21.872Z,62.15
2022-07-27T05:35:51.040Z,61.61
2022-07-27T05:38:21.673Z,61.60
2022-07-27T05:40:56.193Z,60.74
2022-07-27T05:43:28.639Z,58.69
2022-07-27T05:46:00.291Z,56.97
2022-07-27T05:48:44.842Z,55.34
2022-07-27T05:51:18.307Z,54.27
2022-07-27T05:53:47.361Z,53.36
2022-07-27T05:56:16.495Z,52.23
2022-07-27T05:58:45.675Z,51.22
2022-07-27T06:01:14.944Z,49.65
2022-07-27T06:03:44.173Z,48.53
2022-07-27T06:06:31.918Z,47.83
2022-07-27T06:09:02.847Z,47.85
2022-07-27T06:11:32.022Z,48.59
2022-07-27T06:14:01.105Z,48.80
2022-07-27T06:16:40.030Z,49.90
2022-07-27T06:19:16.129Z,49.95
2022-07-27T06:21:53.100Z,48.80
2022-07-27T06:24:23.516Z,48.73
2022-07-27T06:27:02.282Z,48.73
2022-07-27T06:29:31.746Z,48.23
2022-07-27T06:32:04.063Z,47.95
2022-07-27T06:34:35.458Z,48.22
2022-07-27T06:37:06.284Z,48.70
2022-07-27T06:39:35.437Z,48.46
2022-07-27T06:42:04.762Z,48.55
2022-07-27T06:44:33.769Z,48.41
2022-07-27T06:47:05.080Z,48.34
2022-07-27T06:49:34.410Z,48.67
2022-07-27T06:52:07.535Z,48.59
2022-07-27T06:54:36.609Z,48.97
2022-07-27T06:57:07.055Z,49.80
2022-07-27T06:59:42.728Z,50.08
2022-07-27T07:02:15.179Z,50.46
2022-07-27T07:04:46.627Z,51.24
2022-07-27T07:07:15.652Z,51.60
2022-07-27T07:09:47.581Z,51.27
2022-07-27T07:12:19.318Z,51.13
2022-07-27T07:14:50.485Z,51.14
2022-07-27T07:17:20.006Z,51.52
2022-07-27T07:19:49.291Z,51.96
2022-07-27T07:22:20.598Z,52.19
2022-07-27T07:24:49.933Z,51.93
2022-07-27T07:27:23.806Z,52.26
2022-07-27T07:29:52.963Z,52.24
2022-07-27T07:32:27.744Z,52.04
2022-07-27T07:35:01.804Z,52.21
2022-07-27T07:37:33.967Z,52.82
2022-07-27T07:40:40.132Z,52.23
2022-07-27T07:43:04.315Z,51.80
2022-07-27T07:45:44.459Z,51.27
2022-07-27T07:48:22.177Z,50.91
2022-07-27T07:50:54.103Z,51.10
2022-07-27T07:53:25.223Z,51.32
2022-07-27T07:55:56.957Z,50.61
2022-07-27T07:58:26.898Z,50.49
2022-07-27T08:00:55.889Z,50.61
2022-07-27T08:03:25.003Z,50.66
2022-07-27T08:05:56.062Z,50.72
2022-07-27T08:08:25.111Z,51.20
2022-07-27T08:10:54.166Z,51.13
2022-07-27T08:13:23.111Z,51.41
2022-07-27T08:15:53.534Z,51.67
2022-07-27T08:18:24.956Z,51.75
2022-07-27T08:20:56.098Z,51.97
2022-07-27T08:23:27.755Z,52.06
2022-07-27T08:26:02.893Z,52.29
2022-07-27T08:28:45.372Z,52.42
2022-07-27T08:31:50.249Z,53.05
2022-07-27T08:34:13.189Z,53.39
2022-07-27T08:36:43.799Z,54.09
2022-07-27T08:39:41.168Z,54.93
2022-07-27T08:42:04.710Z,55.91
2022-07-27T08:44:37.153Z,56.91
2022-07-27T08:47:09.132Z,58.07
2022-07-27T08:49:44.164Z,58.87
2022-07-27T08:52:13.787Z,59.70
2022-07-27T08:54:43.144Z,60.58
2022-07-27T08:57:13.871Z,61.55
2022-07-27T08:59:43.423Z,62.28
2022-07-27T09:02:17.635Z,62.98
2022-07-27T09:04:50.805Z,63.48
2022-07-27T09:07:31.767Z,63.91
2022-07-27T09:10:01.240Z,63.72
2022-07-27T09:12:34.995Z,64.10
2022-07-27T09:15:11.601Z,64.71
2022-07-27T09:17:50.530Z,64.93
2022-07-27T09:20:22.346Z,65.04
2022-07-27T09:22:56.435Z,66.34
2022-07-27T09:26:02.144Z,66.76
2022-07-27T09:28:32.899Z,65.30
2022-07-27T09:31:12.205Z,63.53
2022-07-27T09:33:49.383Z,63.53
2022-07-27T09:36:21.215Z,61.62
2022-07-27T09:39:08.054Z,60.46
2022-07-27T09:41:55.374Z,58.45
2022-07-27T09:44:44.912Z,57.20
2022-07-27T09:47:31.298Z,55.12
2022-07-27T09:50:24.281Z,53.52
2022-07-27T09:52:53.489Z,52.57
2022-07-27T09:55:22.826Z,52.65
2022-07-27T09:57:57.622Z,52.16
2022-07-27T10:00:27.698Z,51.66
2022-07-27T10:03:00.953Z,52.46
2022-07-27T10:05:34.685Z,52.53
2022-07-27T10:08:04.043Z,51.39
2022-07-27T10:10:35.576Z,52.23
2022-07-27T10:13:05.916Z,53.41
2022-07-27T10:15:37.272Z,52.31
2022-07-27T10:18:19.743Z,51.24
2022-07-27T10:20:48.999Z,50.48
2022-07-27T10:23:29.632Z,50.02
2022-07-27T10:26:28.257Z,49.67
2022-07-27T10:29:15.404Z,48.51
2022-07-27T10:32:09.182Z,47.65
2022-07-27T10:34:42.104Z,46.20
2022-07-27T10:37:18.559Z,45.91
2022-07-27T10:40:13.999Z,46.01
2022-07-27T10:42:53.990Z,46.72
2022-07-27T10:45:24.164Z,46.16
2022-07-27T10:47:53.633Z,45.76
2022-07-27T10:50:30.106Z,44.98
2022-07-27T10:53:11.022Z,44.67
2022-07-27T10:55:42.935Z,44.21
2022-07-27T10:58:14.779Z,44.25
2022-07-27T11:00:54.240Z,44.28
2022-07-27T11:03:24.713Z,43.90
2022-07-27T11:06:31.921Z,43.60
2022-07-27T11:11:50.408Z,42.76
2022-07-27T11:14:30.222Z,43.22
2022-07-27T11:17:32.281Z,42.69
2022-07-27T11:20:03.325Z,42.34
2022-07-27T11:25:32.077Z,42.43
2022-07-27T11:28:12.068Z,42.69
2022-07-27T11:30:41.446Z,43.00
2022-07-27T11:33:10.955Z,43.07
2022-07-27T11:36:01.987Z,42.60
2022-07-27T11:38:45.661Z,42.49
2022-07-27T11:42:03.134Z,42.49
2022-07-27T11:44:20.483Z,42.38
2022-07-27T11:46:52.531Z,42.00
2022-07-27T11:49:31.536Z,42.01
2022-07-27T11:52:08.154Z,42.42
2022-07-27T11:54:44.936Z,42.51
2022-07-27T11:57:19.112Z,42.86
2022-07-27T11:59:49.363Z,43.44
2022-07-27T12:02:21.609Z,43.25
2022-07-27T12:04:52.761Z,43.02
2022-07-27T12:07:52.714Z,43.00
2022-07-27T12:10:24.468Z,42.58
2022-07-27T12:12:58.797Z,42.51
2022-07-27T12:15:45.228Z,41.90
2022-07-27T12:18:15.470Z,41.75
2022-07-27T12:20:48.833Z,41.48
2022-07-27T12:23:18.519Z,40.76
2022-07-27T12:25:49.014Z,40.57
2022-07-27T12:28:25.740Z,40.70
2022-07-27T12:30:56.036Z,40.30
2022-07-27T12:33:37.821Z,39.86
2022-07-27T12:36:09.528Z,39.58
2022-07-27T12:38:45.259Z,39.68
2022-07-27T12:41:29.969Z,39.89
2022-07-27T12:44:14.095Z,39.80
2022-07-27T12:47:02.073Z,39.38
2022-07-27T12:49:46.317Z,38.83
2022-07-27T12:52:19.267Z,38.52
2022-07-27T12:55:17.279Z,38.78
2022-07-27T12:57:56.522Z,38.69
2022-07-27T13:00:41.095Z,38.60
2022-07-27T13:03:14.410Z,38.56
2022-07-27T13:05:43.667Z,38.19
2022-07-27T13:08:16.578Z,37.88
2022-07-27T13:10:46.290Z,37.88
2022-07-27T13:13:19.005Z,37.76
2022-07-27T13:15:49.423Z,37.78
2022-07-27T13:18:23.186Z,37.74
2022-07-27T13:20:54.017Z,37.64
2022-07-27T13:23:23.144Z,37.48
2022-07-27T13:25:52.212Z,37.68
2022-07-27T13:28:21.254Z,37.85
2022-07-27T13:30:54.799Z,37.89
2022-07-27T13:33:29.499Z,37.84
2022-07-27T13:36:01.232Z,37.91
2022-07-27T13:38:33.655Z,37.58
2022-07-27T13:41:02.691Z,37.21
2022-07-27T13:43:34.672Z,37.15
2022-07-27T13:46:04.127Z,37.16
2022-07-27T13:48:33.049Z,36.69
2022-07-27T13:51:02.171Z,36.54
2022-07-27T13:53:33.692Z,36.54
2022-07-27T13:56:04.642Z,36.76
2022-07-27T13:58:35.078Z,36.96
2022-07-27T14:01:15.171Z,36.95
2022-07-27T14:03:47.787Z,36.94
2022-07-27T14:06:20.303Z,36.86
2022-07-27T14:08:51.983Z,36.64
2022-07-27T14:11:21.050Z,36.43
2022-07-27T14:13:50.177Z,36.40
2022-07-27T14:16:19.448Z,36.31
2022-07-27T14:18:48.697Z,36.02
2022-07-27T14:21:18.237Z,36.02
2022-07-27T14:23:47.311Z,36.13
2022-07-27T14:26:16.425Z,36.14
2022-07-27T14:28:45.772Z,36.12
2022-07-27T14:31:15.562Z,35.79
2022-07-27T14:33:51.195Z,35.90
2022-07-27T14:36:26.955Z,35.54
2022-07-27T14:39:00.470Z,35.19
2022-07-27T14:41:29.444Z,34.98
2022-07-27T14:43:58.585Z,34.96
2022-07-27T14:46:30.233Z,34.94
2022-07-27T14:49:07.105Z,34.69
2022-07-27T14:51:37.467Z,34.76
2022-07-27T14:54:06.506Z,34.97
2022-07-27T14:56:36.741Z,34.99
2022-07-27T14:59:05.907Z,35.00
2022-07-27T15:01:35.268Z,35.12
2022-07-27T15:04:07.571Z,35.17
2022-07-27T15:06:39.036Z,34.90
2022-07-27T15:09:08.485Z,34.72
2022-07-27T15:11:37.992Z,34.62
2022-07-27T15:14:06.990Z,34.49
2022-07-27T15:16:36.331Z,34.59
2022-07-27T15:19:05.396Z,34.67
2022-07-27T15:21:34.440Z,34.63
2022-07-27T15:24:03.520Z,34.70
2022-07-27T15:26:33.190Z,34.70
2022-07-27T15:29:02.397Z,34.90
2022-07-27T15:31:31.833Z,35.10
2022-07-27T15:34:02.914Z,34.90
2022-07-27T15:36:35.332Z,34.77
2022-07-27T15:39:06.534Z,34.23
2022-07-27T15:41:37.473Z,33.89
2022-07-27T15:44:12.822Z,33.91
2022-07-27T15:46:51.643Z,33.91
2022-07-27T15:49:23.157Z,33.81
2022-07-27T15:51:52.735Z,33.77
2022-07-27T15:54:25.850Z,34.00
2022-07-27T15:56:56.705Z,34.00
2022-07-27T15:59:25.915Z,33.89
2022-07-27T16:01:56.166Z,33.86
2022-07-27T16:04:26.552Z,33.82
2022-07-27T16:06:58.213Z,33.86
2022-07-27T16:09:27.558Z,33.75
2022-07-27T16:11:56.718Z,34.02
2022-07-27T16:14:25.608Z,34.13
2022-07-27T16:16:55.689Z,34.12
2022-07-27T16:19:24.688Z,34.16
2022-07-27T16:21:55.922Z,34.19
2022-07-27T16:24:28.836Z,34.41
2022-07-27T16:27:07.691Z,34.45
2022-07-27T16:29:36.861Z,34.35
2022-07-27T16:32:07.245Z,34.46
2022-07-27T16:34:36.282Z,34.70
2022-07-27T16:37:05.333Z,34.76
2022-07-27T16:39:36.583Z,34.68
2022-07-27T16:42:05.718Z,34.56
2022-07-27T16:44:39.613Z,34.69
2022-07-27T16:47:09.918Z,34.92
2022-07-27T16:49:41.699Z,34.92
2022-07-27T16:52:11.144Z,34.80
2022-07-27T16:54:43.065Z,34.68
2022-07-27T16:57:43.339Z,34.65
2022-07-27T17:00:45.822Z,34.69
2022-07-27T17:03:17.570Z,34.77
2022-07-27T17:06:05.669Z,34.72
2022-07-27T17:08:47.632Z,34.43
2022-07-27T17:11:48.747Z,34.19
2022-07-27T17:14:39.116Z,34.31
2022-07-27T17:17:11.958Z,34.52
2022-07-27T17:19:43.740Z,34.58
2022-07-27T17:22:19.762Z,34.50
2022-07-27T17:24:59.933Z,34.50
2022-07-27T17:27:42.082Z,34.29
2022-07-27T17:30:27.324Z,34.30
2022-07-27T17:32:59.042Z,34.34
2022-07-27T17:35:28.235Z,34.29
2022-07-27T17:38:06.273Z,34.60
2022-07-27T17:40:36.328Z,34.75
2022-07-27T17:43:05.525Z,34.91
2022-07-27T17:45:39.108Z,34.94
2022-07-27T17:48:08.268Z,35.01
2022-07-27T17:50:37.311Z,35.08
2022-07-27T17:53:07.737Z,35.04
2022-07-27T17:55:48.091Z,35.09
2022-07-27T17:58:19.946Z,35.17
2022-07-27T18:00:49.214Z,35.26
2022-07-27T18:03:23.242Z,35.25
2022-07-27T18:05:57.399Z,35.35
2022-07-27T18:08:26.296Z,35.40
2022-07-27T18:10:55.406Z,35.51
2022-07-27T18:13:39.109Z,35.63
2022-07-27T18:16:12.194Z,35.92
2022-07-27T18:18:42.891Z,35.99
2022-07-27T18:21:20.123Z,35.99
2022-07-27T18:23:51.231Z,36.07
2022-07-27T18:26:21.439Z,36.24
2022-07-27T18:28:52.813Z,36.35
2022-07-27T18:31:24.846Z,36.38
2022-07-27T18:33:59.717Z,36.35
2022-07-27T18:36:28.884Z,36.43
2022-07-27T18:38:58.066Z,36.44
2022-07-27T18:41:28.466Z,36.46
2022-07-27T18:44:05.671Z,36.50
2022-07-27T18:46:43.232Z,36.82
2022-07-27T18:49:15.246Z,37.03
2022-07-27T18:51:51.120Z,37.11
2022-07-27T18:54:21.880Z,37.24
2022-07-27T18:56:57.551Z,37.36
2022-07-27T18:59:40.788Z,37.56
2022-07-27T19:02:10.805Z,37.58
2022-07-27T19:05:05.564Z,37.77
2022-07-27T19:07:39.931Z,37.79
2022-07-27T19:10:15.794Z,38.02
2022-07-27T19:12:46.853Z,38.07
2022-07-27T19:15:17.540Z,38.14
2022-07-27T19:17:52.914Z,38.38
2022-07-27T19:20:26.993Z,38.85
2022-07-27T19:23:05.939Z,38.77
2022-07-27T19:25:35.363Z,39.02
2022-07-27T19:28:04.833Z,39.12
2022-07-27T19:30:35.101Z,39.29
2022-07-27T19:33:06.159Z,39.40
2022-07-27T19:35:35.412Z,39.80
2022-07-27T19:38:08.546Z,40.07
2022-07-27T19:40:46.184Z,39.98
2022-07-27T19:43:19.879Z,40.16
2022-07-27T19:45:52.452Z,40.39
2022-07-27T19:48:25.011Z,40.60
2022-07-27T19:51:03.283Z,40.81
2022-07-27T19:53:39.570Z,41.03
2022-07-27T19:56:08.680Z,41.17
2022-07-27T19:58:37.785Z,41.22
2022-07-27T20:01:09.562Z,41.55
2022-07-27T20:03:52.185Z,41.83
2022-07-27T20:06:29.003Z,42.10
2022-07-27T20:09:09.007Z,42.24
2022-07-27T20:11:38.067Z,42.47
2022-07-27T20:14:07.051Z,42.87
2022-07-27T20:16:39.026Z,43.22
2022-07-27T20:19:07.981Z,43.57
2022-07-27T20:21:40.391Z,43.64
2022-07-27T20:24:22.106Z,43.88
2022-07-27T20:26:56.695Z,44.32
2022-07-27T20:29:29.489Z,44.70
2022-07-27T20:32:04.883Z,45.08
2022-07-27T20:34:33.908Z,45.41
2022-07-27T20:37:08.014Z,45.52
2022-07-27T20:39:40.476Z,45.89
2022-07-27T20:42:17.889Z,46.14
2022-07-27T20:44:54.915Z,46.59
2022-07-27T20:47:35.545Z,46.62
2022-07-27T20:50:09.098Z,46.78
2022-07-27T20:52:42.479Z,46.94
2022-07-27T20:55:13.756Z,47.08
2022-07-27T20:57:42.745Z,47.50
2022-07-27T21:00:12.984Z,47.90
2022-07-27T21:02:44.460Z,48.49
2022-07-27T21:05:17.273Z,49.01
2022-07-27T21:07:51.831Z,49.41
2022-07-27T21:10:31.447Z,49.63
2022-07-27T21:13:00.922Z,49.77
2022-07-27T21:15:34.981Z,49.91
2022-07-27T21:18:11.798Z,50.25
2022-07-27T21:20:45.044Z,50.59
2022-07-27T21:23:34.829Z,50.72
2022-07-27T21:26:08.057Z,50.95
2022-07-27T21:28:54.899Z,51.08
2022-07-27T21:31:25.773Z,51.30
2022-07-27T21:33:57.882Z,51.72
2022-07-27T21:36:30.168Z,52.03
2022-07-27T21:39:05.114Z,52.34
2022-07-27T21:41:36.915Z,52.64
2022-07-27T21:44:08.852Z,52.78
2022-07-27T21:46:42.627Z,53.07
2022-07-27T21:49:13.396Z,53.48
2022-07-27T21:51:42.718Z,53.59
2022-07-27T21:54:11.972Z,53.73
2022-07-27T21:56:51.189Z,54.04
2022-07-27T21:59:25.637Z,54.32
2022-07-27T22:01:54.813Z,54.34
2022-07-27T22:04:26.363Z,54.48
2022-07-27T22:06:55.552Z,54.60
2022-07-27T22:09:24.701Z,54.73
2022-07-27T22:11:53.911Z,54.90
2022-07-27T22:14:25.687Z,55.03
2022-07-27T22:16:54.838Z,55.01
2022-07-27T22:19:23.859Z,55.20
2022-07-27T22:22:01.583Z,55.39
2022-07-27T22:24:35.381Z,55.59
2022-07-27T22:27:06.039Z,55.87
2022-07-27T22:29:37.680Z,56.13
2022-07-27T22:32:08.276Z,56.41
2022-07-27T22:34:40.616Z,56.56
2022-07-27T22:37:14.870Z,56.83
2022-07-27T22:39:44.285Z,57.08
2022-07-27T22:42:13.747Z,57.26
2022-07-27T22:44:43.426Z,57.24
2022-07-27T22:47:12.698Z,57.32
2022-07-27T22:49:41.859Z,57.52
2022-07-27T22:52:11.226Z,57.62
2022-07-27T22:54:42.080Z,57.75
2022-07-27T22:57:13.170Z,57.96
2022-07-27T22:59:42.612Z,58.17
2022-07-27T23:02:11.991Z,58.16
2022-07-27T23:04:41.087Z,58.26
2022-07-27T23:07:13.220Z,58.28
2022-07-27T23:09:42.374Z,58.34
2022-07-27T23:12:11.841Z,58.45
2022-07-27T23:14:49.037Z,58.53
2022-07-27T23:17:18.790Z,58.66
2022-07-27T23:19:47.887Z,58.81
2022-07-27T23:22:17.471Z,59.03
2022-07-27T23:24:49.749Z,59.21
2022-07-27T23:27:20.469Z,59.05
2022-07-27T23:29:50.105Z,59.17
2022-07-27T23:32:22.454Z,59.34
2022-07-27T23:34:54.245Z,59.35
2022-07-27T23:37:23.420Z,59.62
2022-07-27T23:39:52.506Z,59.64
2022-07-27T23:42:21.678Z,59.59
2022-07-27T23:44:50.569Z,59.73
2022-07-27T23:47:21.830Z,59.73
2022-07-27T23:49:50.803Z,59.83
2022-07-27T23:52:20.061Z,59.96
2022-07-27T23:54:49.104Z,60.15
2022-07-27T23:57:18.328Z,60.15
2022-07-27T23:59:47.448Z,60.10
